Time;durP1;ratioP1;P1;durP2;ratioP2;P2;SDS_P1;SDS_P2;PMS_P1;PMS_P2;Temp;Humidity;BMP_temperature;BMP_pressure;BME280_temperature;BME280_humidity;BME280_pressure;Samples;Min_cycle;Max_cycle;Signal;HPM_P1;HPM_P2
2023/10/19 00:00:56;;;;;;;58.22;52.38;;;8.00;99.90;;;;;;6196228;23;20043;-86
2023/10/19 00:03:23;;;;;;;55.55;49.33;;;7.80;99.90;;;;;;6196725;23;20020;-85
2023/10/19 00:05:49;;;;;;;77.93;71.03;;;8.60;99.90;;;;;;6196025;23;20110;-85
2023/10/19 00:08:16;;;;;;;63.95;57.60;;;8.40;99.90;;;;;;6220634;23;20040;-86
2023/10/19 00:10:45;;;;;;;55.92;50.03;;;9.00;99.90;;;;;;6196577;23;20095;-86
2023/10/19 00:13:11;;;;;;;62.97;56.70;;;8.50;99.90;;;;;;6196754;23;20012;-86
2023/10/19 00:15:54;;;;;;;63.45;53.13;;;8.00;99.90;;;;;;6197073;23;20023;-87
2023/10/19 00:18:21;;;;;;;55.67;49.63;;;8.00;99.90;;;;;;6221108;22;20185;-87
2023/10/19 00:20:52;;;;;;;56.13;49.30;;;9.00;99.90;;;;;;6258576;22;20016;-86
2023/10/19 00:23:35;;;;;;;59.53;53.30;;;7.90;99.90;;;;;;6259378;22;20015;-88
2023/10/19 00:26:08;;;;;;;65.63;57.53;;;7.90;99.90;;;;;;6260523;22;20023;-86
2023/10/19 00:28:38;;;;;;;65.40;57.85;;;8.20;99.90;;;;;;6260758;22;20509;-88
2023/10/19 00:31:08;;;;;;;61.15;54.17;;;7.90;99.90;;;;;;6260006;22;20038;-86
2023/10/19 00:33:38;;;;;;;63.70;56.75;;;8.50;99.90;;;;;;6260230;22;20341;-88
2023/10/19 00:36:07;;;;;;;65.22;54.58;;;8.20;99.90;;;;;;6260027;22;20011;-88
2023/10/19 00:41:06;;;;;;;63.30;53.75;;;8.10;99.90;;;;;;6286349;22;20019;-88
2023/10/19 00:43:46;;;;;;;70.53;60.30;;;8.50;99.90;;;;;;6259334;22;20007;-87
2023/10/19 00:48:49;;;;;;;62.83;51.50;;;7.90;99.90;;;;;;6288210;22;20103;-88
2023/10/19 00:54:10;;;;;;;76.45;67.07;;;8.30;99.90;;;;;;6288290;22;20026;-89
2023/10/19 00:56:37;;;;;;;85.97;76.93;;;7.90;99.90;;;;;;6262042;22;20045;-87
2023/10/19 00:59:24;;;;;;;70.18;61.33;;;7.50;99.90;;;;;;6261802;22;20152;-88
2023/10/19 01:01:55;;;;;;;68.50;58.95;;;7.20;99.90;;;;;;6288082;22;20015;-87
2023/10/19 01:04:31;;;;;;;80.00;66.47;;;7.90;99.90;;;;;;6263222;22;20060;-88
2023/10/19 01:07:21;;;;;;;67.05;53.03;;;8.30;99.90;;;;;;6262997;22;20019;-88
2023/10/19 01:09:47;;;;;;;74.40;57.47;;;8.90;99.90;;;;;;6264308;22;20045;-87
2023/10/19 01:15:05;;;;;;;73.75;62.40;;;8.50;99.90;;;;;;6288305;22;20021;-88
2023/10/19 01:17:33;;;;;;;74.25;61.33;;;7.90;99.90;;;;;;6263410;22;20015;-87
2023/10/19 01:19:59;;;;;;;78.30;57.92;;;8.60;99.90;;;;;;6262694;22;20015;-86
2023/10/19 01:22:26;;;;;;;68.55;57.33;;;8.20;99.90;;;;;;6261007;22;20017;-87
2023/10/19 01:24:54;;;;;;;76.32;60.83;;;8.00;99.90;;;;;;6261713;22;20465;-87
2023/10/19 01:27:20;;;;;;;84.07;74.15;;;7.90;99.90;;;;;;6261550;22;20035;-88
2023/10/19 01:29:46;;;;;;;83.28;64.70;;;7.90;99.90;;;;;;6261618;22;20015;-89
2023/10/19 01:32:15;;;;;;;81.40;61.45;;;8.80;99.90;;;;;;6261580;22;20274;-88
2023/10/19 01:34:40;;;;;;;85.00;69.85;;;7.90;99.90;;;;;;6262807;22;20304;-88
2023/10/19 01:37:06;;;;;;;80.15;64.20;;;8.20;99.90;;;;;;6261059;22;20053;-89
2023/10/19 01:39:35;;;;;;;82.40;63.33;;;8.10;99.90;;;;;;6261787;22;20011;-88
2023/10/19 01:42:01;;;;;;;88.45;65.78;;;8.30;99.90;;;;;;6262203;22;20007;-88
2023/10/19 01:44:27;;;;;;;74.40;59.17;;;8.30;99.90;;;;;;6262180;22;20012;-89
2023/10/19 01:46:53;;;;;;;81.03;59.08;;;8.90;99.90;;;;;;6261494;22;20007;-88
2023/10/19 01:49:28;;;;;;;72.28;52.15;;;7.80;99.90;;;;;;6262385;22;20011;-89
2023/10/19 01:51:54;;;;;;;86.40;71.15;;;8.90;99.90;;;;;;6263646;22;20560;-89
2023/10/19 01:54:27;;;;;;;76.70;60.35;;;7.90;99.90;;;;;;6262763;22;20060;-89
2023/10/19 01:56:56;;;;;;;91.75;69.07;;;7.80;99.90;;;;;;6262944;22;20025;-87
2023/10/19 01:59:27;;;;;;;99.15;66.97;;;8.00;99.90;;;;;;6263014;22;20011;-88
2023/10/19 02:01:54;;;;;;;105.97;74.88;;;7.90;99.90;;;;;;6261736;22;20026;-89
2023/10/19 02:04:21;;;;;;;104.10;79.38;;;8.30;99.90;;;;;;6254059;22;20449;-87
2023/10/19 02:06:48;;;;;;;110.80;62.78;;;7.90;99.90;;;;;;6278273;22;20029;-89
2023/10/19 02:09:21;;;;;;;107.68;73.65;;;8.50;99.90;;;;;;6253224;22;20053;-89
2023/10/19 02:11:49;;;;;;;90.15;58.90;;;7.80;99.90;;;;;;6278840;22;20094;-88
2023/10/19 02:14:15;;;;;;;102.78;62.92;;;9.10;99.90;;;;;;6253097;22;20067;-88
2023/10/19 02:16:52;;;;;;;120.63;69.95;;;8.50;99.90;;;;;;6252808;22;20011;-88
2023/10/19 02:19:19;;;;;;;132.70;70.55;;;9.00;99.90;;;;;;6251986;22;20016;-88
2023/10/19 02:21:48;;;;;;;95.68;62.65;;;7.80;99.90;;;;;;6252740;22;20015;-88
2023/10/19 02:24:14;;;;;;;130.45;73.80;;;8.20;99.90;;;;;;6252880;22;20335;-87
2023/10/19 02:26:44;;;;;;;102.82;60.90;;;8.70;99.90;;;;;;6252542;22;20011;-87
2023/10/19 02:29:10;;;;;;;103.13;61.95;;;7.90;99.90;;;;;;6252433;22;20009;-88
2023/10/19 02:31:39;;;;;;;99.18;61.65;;;7.90;99.90;;;;;;6277862;22;20015;-87
2023/10/19 02:34:08;;;;;;;167.05;77.72;;;8.80;99.90;;;;;;6251836;22;20038;-88
2023/10/19 02:36:36;;;;;;;133.23;73.97;;;7.90;99.90;;;;;;6246225;22;20087;-88
2023/10/19 02:39:07;;;;;;;102.10;66.65;;;8.30;99.90;;;;;;6247886;22;20030;-88
2023/10/19 02:41:45;;;;;;;95.97;67.60;;;7.90;99.90;;;;;;6247826;22;20016;-89
2023/10/19 02:46:45;;;;;;;126.63;68.97;;;8.10;99.90;;;;;;6272957;22;20047;-87
2023/10/19 02:49:13;;;;;;;123.00;64.50;;;9.00;99.90;;;;;;6247230;22;20081;-87
2023/10/19 02:51:45;;;;;;;111.43;75.13;;;9.10;99.90;;;;;;6248197;22;20019;-87
2023/10/19 02:54:22;;;;;;;118.95;63.15;;;8.90;99.90;;;;;;6247825;22;20016;-88
2023/10/19 02:56:51;;;;;;;101.93;62.92;;;9.10;99.90;;;;;;6247500;22;20012;-88
2023/10/19 02:59:22;;;;;;;124.68;63.28;;;8.50;99.90;;;;;;6247580;22;20016;-88
2023/10/19 03:02:00;;;;;;;102.50;57.90;;;7.90;99.90;;;;;;6247219;22;20034;-88
2023/10/19 03:04:28;;;;;;;113.43;62.45;;;7.90;99.90;;;;;;6248010;22;20011;-88
2023/10/19 03:06:56;;;;;;;106.10;62.83;;;9.00;99.90;;;;;;6248346;22;20023;-88
2023/10/19 03:09:23;;;;;;;86.43;60.10;;;9.10;99.90;;;;;;6246695;22;20525;-88
2023/10/19 03:11:52;;;;;;;97.63;63.90;;;7.90;99.90;;;;;;6247625;22;20015;-88
2023/10/19 03:14:19;;;;;;;83.72;55.83;;;9.20;99.90;;;;;;6247543;22;20012;-88
2023/10/19 03:16:45;;;;;;;123.20;70.25;;;8.80;99.90;;;;;;6246559;22;20011;-88
2023/10/19 03:19:12;;;;;;;108.60;60.63;;;8.40;99.90;;;;;;6247767;22;20584;-87
2023/10/19 03:21:48;;;;;;;83.20;57.65;;;9.00;99.90;;;;;;6246791;22;20022;-87
2023/10/19 03:24:35;;;;;;;96.78;55.45;;;8.10;99.90;;;;;;6247415;22;20455;-89
2023/10/19 03:27:13;;;;;;;92.60;61.33;;;9.00;99.90;;;;;;6247778;22;20008;-88
2023/10/19 03:29:40;;;;;;;84.90;62.13;;;8.50;99.90;;;;;;6247640;22;20008;-88
2023/10/19 03:32:07;;;;;;;113.10;62.33;;;9.00;99.90;;;;;;6247272;22;20061;-89
2023/10/19 03:34:34;;;;;;;117.97;60.72;;;8.00;99.90;;;;;;6247390;22;20019;-88
2023/10/19 03:37:05;;;;;;;105.22;60.75;;;8.10;99.90;;;;;;6271854;22;20013;-88
2023/10/19 03:39:34;;;;;;;100.25;58.88;;;8.10;99.90;;;;;;6247873;22;20027;-88
2023/10/19 03:42:00;;;;;;;118.22;64.30;;;8.10;99.90;;;;;;6247163;22;20008;-88
2023/10/19 03:44:26;;;;;;;74.25;49.65;;;8.90;99.90;;;;;;6246882;22;20096;-88
2023/10/19 03:46:59;;;;;;;101.47;58.03;;;8.50;99.90;;;;;;6247076;22;20007;-89
2023/10/19 03:49:36;;;;;;;91.78;54.80;;;8.10;99.90;;;;;;6247239;22;20047;-88
2023/10/19 03:54:40;;;;;;;98.50;60.50;;;8.10;99.90;;;;;;6273096;22;20500;-89
2023/10/19 03:57:19;;;;;;;84.55;57.05;;;8.10;99.90;;;;;;6247181;22;20342;-89
2023/10/19 03:59:45;;;;;;;80.25;54.38;;;8.10;99.90;;;;;;6250785;22;20016;-89
2023/10/19 04:02:14;;;;;;;75.18;52.42;;;8.20;99.90;;;;;;6247264;22;20012;-86
2023/10/19 04:04:43;;;;;;;90.13;53.78;;;8.20;99.90;;;;;;6246778;22;20012;-88
2023/10/19 04:07:14;;;;;;;77.25;54.10;;;8.10;99.90;;;;;;6249368;22;20442;-88
2023/10/19 04:12:25;;;;;;;100.63;58.90;;;8.80;99.90;;;;;;6272335;22;20026;-89
2023/10/19 04:14:51;;;;;;;73.10;53.78;;;8.50;99.90;;;;;;6246809;22;20087;-89
2023/10/19 04:17:21;;;;;;;92.68;55.88;;;8.20;99.90;;;;;;6247292;22;20090;-89
2023/10/19 04:19:49;;;;;;;85.88;54.42;;;8.60;99.90;;;;;;6247012;22;20011;-89
2023/10/19 04:22:21;;;;;;;78.82;51.50;;;8.90;99.90;;;;;;6247246;22;20011;-90
2023/10/19 04:24:47;;;;;;;80.95;47.35;;;8.80;99.90;;;;;;6247490;22;20015;-89
2023/10/19 04:27:14;;;;;;;88.32;69.40;;;8.20;99.90;;;;;;6247367;22;20012;-88
2023/10/19 04:29:43;;;;;;;96.35;48.78;;;8.20;99.90;;;;;;6245626;22;20012;-87
2023/10/19 04:32:09;;;;;;;77.18;52.45;;;8.20;99.90;;;;;;6245682;22;20053;-87
2023/10/19 04:34:36;;;;;;;70.28;46.50;;;9.10;99.90;;;;;;6245481;22;20193;-87
2023/10/19 04:37:06;;;;;;;97.55;51.88;;;9.40;99.90;;;;;;6245681;22;20027;-87
2023/10/19 04:39:34;;;;;;;98.38;52.78;;;7.70;99.90;;;;;;6245752;22;20023;-87
2023/10/19 04:42:00;;;;;;;81.63;50.22;;;9.00;99.90;;;;;;6245492;22;20100;-88
2023/10/19 04:44:26;;;;;;;80.68;53.13;;;8.80;99.90;;;;;;6246045;22;20461;-88
2023/10/19 04:46:52;;;;;;;88.65;45.78;;;8.20;99.90;;;;;;6271733;22;20012;-88
2023/10/19 04:49:18;;;;;;;70.75;49.20;;;8.80;99.90;;;;;;6247337;22;20061;-88
2023/10/19 04:51:44;;;;;;;75.00;50.33;;;9.30;99.90;;;;;;6251701;22;20011;-88
2023/10/19 04:54:09;;;;;;;60.58;46.03;;;9.00;99.90;;;;;;6254553;22;20012;-87
2023/10/19 04:56:36;;;;;;;80.95;54.70;;;8.20;99.90;;;;;;6277197;22;20039;-90
2023/10/19 04:59:02;;;;;;;76.47;43.08;;;8.20;99.90;;;;;;6251383;22;20727;-87
2023/10/19 05:01:28;;;;;;;60.03;47.70;;;8.20;99.90;;;;;;6245189;22;20016;-83
2023/10/19 05:03:54;;;;;;;61.85;45.08;;;9.40;99.90;;;;;;6244509;22;20023;-83
2023/10/19 05:06:22;;;;;;;56.53;46.88;;;8.20;99.90;;;;;;6269792;22;20217;-86
2023/10/19 05:08:47;;;;;;;75.97;48.55;;;8.20;99.90;;;;;;6244032;22;20012;-84
2023/10/19 05:11:13;;;;;;;66.70;45.17;;;8.20;99.90;;;;;;6277435;22;20018;-88
2023/10/19 05:13:39;;;;;;;67.00;45.50;;;9.40;99.90;;;;;;6250855;22;20019;-87
2023/10/19 05:16:05;;;;;;;54.08;43.65;;;7.70;99.90;;;;;;6256382;22;20011;-90
2023/10/19 05:18:31;;;;;;;48.38;39.08;;;8.40;99.90;;;;;;6258678;22;20011;-86
2023/10/19 05:20:57;;;;;;;55.22;46.28;;;8.60;99.90;;;;;;6256202;22;20011;-87
2023/10/19 05:23:27;;;;;;;51.83;39.20;;;8.20;99.90;;;;;;6281618;22;20098;-88
2023/10/19 05:26:00;;;;;;;49.95;40.28;;;9.10;99.90;;;;;;6289022;22;20069;-90
2023/10/19 05:28:26;;;;;;;46.50;36.00;;;8.30;99.90;;;;;;6263858;22;20404;-90
2023/10/19 05:30:51;;;;;;;57.05;46.40;;;8.20;99.90;;;;;;6253027;22;20016;-87
2023/10/19 05:33:20;;;;;;;49.03;44.08;;;8.80;99.90;;;;;;6257761;22;20012;-86
2023/10/19 05:35:50;;;;;;;59.55;41.95;;;8.90;99.90;;;;;;6276098;22;20174;-85
2023/10/19 05:38:25;;;;;;;58.47;38.85;;;8.20;99.90;;;;;;6252751;22;20435;-86
2023/10/19 05:40:52;;;;;;;46.85;38.10;;;8.20;99.90;;;;;;6279414;22;20027;-84
2023/10/19 05:43:17;;;;;;;39.95;31.42;;;8.80;99.90;;;;;;6251392;22;20046;-83
2023/10/19 05:45:43;;;;;;;42.72;31.98;;;8.50;99.90;;;;;;6275297;22;20465;-84
2023/10/19 05:48:11;;;;;;;38.55;31.17;;;9.30;99.90;;;;;;6277143;22;20030;-83
2023/10/19 05:50:37;;;;;;;42.58;37.97;;;8.90;99.90;;;;;;6277104;22;20043;-83
2023/10/19 05:53:05;;;;;;;50.08;44.92;;;8.20;99.90;;;;;;6278271;22;20497;-83
2023/10/19 05:55:31;;;;;;;38.88;30.35;;;8.20;99.90;;;;;;6278278;22;20019;-83
2023/10/19 05:57:57;;;;;;;43.50;37.05;;;9.20;99.90;;;;;;6252339;22;20023;-83
2023/10/19 06:00:25;;;;;;;42.30;33.95;;;9.10;99.90;;;;;;6276371;22;20012;-83
2023/10/19 06:02:52;;;;;;;41.88;32.85;;;8.70;99.90;;;;;;6302757;22;20011;-83
2023/10/19 06:05:19;;;;;;;41.65;32.20;;;8.50;99.90;;;;;;6278848;22;20065;-83
2023/10/19 06:07:46;;;;;;;44.72;34.35;;;8.20;99.90;;;;;;6280804;22;20023;-87
2023/10/19 06:10:17;;;;;;;37.08;32.92;;;9.20;99.90;;;;;;6259756;22;20019;-83
2023/10/19 06:12:47;;;;;;;42.65;37.83;;;8.50;99.90;;;;;;6257062;22;20015;-85
2023/10/19 06:15:14;;;;;;;43.83;37.80;;;8.80;99.90;;;;;;6256654;22;20019;-87
2023/10/19 06:17:41;;;;;;;40.40;36.08;;;9.40;99.90;;;;;;6252491;22;20070;-84
2023/10/19 06:20:23;;;;;;;39.13;34.03;;;9.10;99.90;;;;;;6256055;22;20026;-84
2023/10/19 06:23:00;;;;;;;43.15;35.05;;;8.20;99.90;;;;;;6255998;22;20022;-86
2023/10/19 06:25:26;;;;;;;43.67;35.22;;;9.50;99.90;;;;;;6256686;22;20047;-85
2023/10/19 06:27:53;;;;;;;54.80;41.70;;;8.20;99.90;;;;;;6277331;22;20011;-84
2023/10/19 06:30:21;;;;;;;40.63;36.05;;;8.30;99.90;;;;;;6252790;22;20014;-87
2023/10/19 06:33:03;;;;;;;48.97;37.55;;;8.30;99.90;;;;;;6260284;22;20020;-89
2023/10/19 06:35:40;;;;;;;43.03;34.78;;;8.30;99.90;;;;;;6264037;22;20012;-86
2023/10/19 06:38:09;;;;;;;46.13;37.28;;;9.40;99.90;;;;;;6261942;22;20034;-85
2023/10/19 06:40:37;;;;;;;42.80;37.10;;;7.80;99.90;;;;;;6260494;22;20012;-86
2023/10/19 06:43:05;;;;;;;40.92;33.35;;;9.50;99.90;;;;;;6264148;22;20015;-88
2023/10/19 06:45:31;;;;;;;54.33;43.58;;;8.30;99.90;;;;;;6260354;22;20011;-87
2023/10/19 06:47:57;;;;;;;34.80;29.98;;;8.30;99.90;;;;;;6285538;22;20034;-86
2023/10/19 06:50:23;;;;;;;39.35;35.45;;;8.30;99.90;;;;;;6257785;22;20141;-84
2023/10/19 06:52:49;;;;;;;46.30;41.70;;;8.20;99.90;;;;;;6285067;22;20071;-88
2023/10/19 06:55:19;;;;;;;42.70;33.28;;;9.40;99.90;;;;;;6262299;22;20210;-86
2023/10/19 06:57:49;;;;;;;42.83;38.90;;;8.60;99.90;;;;;;6264847;22;20022;-87
2023/10/19 07:00:19;;;;;;;46.83;43.03;;;8.30;99.90;;;;;;6261082;22;20011;-88
2023/10/19 07:02:46;;;;;;;40.92;35.95;;;8.30;99.90;;;;;;6261266;22;20016;-86
2023/10/19 07:05:20;;;;;;;49.30;45.00;;;9.40;99.90;;;;;;6264447;22;20015;-86
2023/10/19 07:07:46;;;;;;;56.60;51.55;;;9.50;99.90;;;;;;6264583;22;20016;-85
2023/10/19 07:10:13;;;;;;;38.75;32.00;;;9.30;99.90;;;;;;6264305;22;20012;-88
2023/10/19 07:12:55;;;;;;;46.67;42.08;;;9.00;99.90;;;;;;6262494;22;20031;-86
2023/10/19 07:15:23;;;;;;;44.42;36.70;;;8.40;99.90;;;;;;6286416;22;20015;-86
2023/10/19 07:17:52;;;;;;;39.22;35.08;;;8.40;99.90;;;;;;6262289;22;20122;-82
2023/10/19 07:20:35;;;;;;;41.42;36.90;;;9.50;99.90;;;;;;6272887;22;20016;-83
2023/10/19 07:23:19;;;;;;;33.03;29.52;;;8.50;99.90;;;;;;6280845;22;20019;-84
2023/10/19 07:25:47;;;;;;;;;;;8.50;99.90;;;;;;6259388;22;20012;-85
2023/10/19 07:28:17;;;;;;;34.25;30.67;;;8.50;99.90;;;;;;6283332;22;19919;-84
2023/10/19 07:30:43;;;;;;;33.75;30.13;;;8.50;99.90;;;;;;6307520;22;20015;-85
2023/10/19 07:33:10;;;;;;;39.53;35.88;;;9.40;99.90;;;;;;6279221;22;20047;-83
2023/10/19 07:35:42;;;;;;;32.55;29.38;;;9.50;99.90;;;;;;6279086;22;20008;-83
2023/10/19 07:38:08;;;;;;;31.92;28.13;;;8.50;99.90;;;;;;6274700;22;20024;-84
2023/10/19 07:40:34;;;;;;;56.45;51.78;;;8.50;99.90;;;;;;6250613;22;20077;-83
2023/10/19 07:43:00;;;;;;;40.60;36.53;;;8.60;99.90;;;;;;6275209;22;20012;-84
2023/10/19 07:45:26;;;;;;;39.58;35.67;;;9.10;99.90;;;;;;6278124;22;20020;-84
2023/10/19 07:47:52;;;;;;;31.25;28.02;;;8.30;99.90;;;;;;6279213;22;20019;-85
2023/10/19 07:50:17;;;;;;;38.10;34.30;;;9.60;99.90;;;;;;6255618;22;20012;-84
2023/10/19 07:52:48;;;;;;;29.33;22.35;;;9.50;99.90;;;;;;6252215;22;20022;-85
2023/10/19 07:55:15;;;;;;;45.88;41.55;;;9.10;99.90;;;;;;6280952;22;20381;-85
2023/10/19 07:57:42;;;;;;;40.22;36.75;;;9.60;99.90;;;;;;6282063;22;20016;-84
2023/10/19 08:00:09;;;;;;;42.47;38.30;;;9.10;99.90;;;;;;6287254;22;20469;-87
2023/10/19 08:02:37;;;;;;;51.25;46.08;;;8.60;99.90;;;;;;6260742;22;20036;-86
2023/10/19 08:05:06;;;;;;;54.45;41.80;;;8.60;99.90;;;;;;6261385;22;20018;-85
2023/10/19 08:07:34;;;;;;;40.63;31.13;;;8.60;99.90;;;;;;6288053;22;20060;-86
2023/10/19 08:10:00;;;;;;;29.67;26.80;;;8.80;99.90;;;;;;6265334;22;20036;-88
2023/10/19 08:12:29;;;;;;;44.13;40.80;;;8.60;99.90;;;;;;6267212;22;20011;-86
2023/10/19 08:14:55;;;;;;;34.83;32.00;;;9.50;99.90;;;;;;6266456;22;20015;-87
2023/10/19 08:17:22;;;;;;;36.40;32.92;;;9.40;99.90;;;;;;6264352;22;20019;-86
2023/10/19 08:19:47;;;;;;;51.00;46.58;;;8.70;99.90;;;;;;6262870;22;20094;-87
2023/10/19 08:22:14;;;;;;;37.42;34.05;;;8.60;99.90;;;;;;6265020;22;20015;-88
2023/10/19 08:24:43;;;;;;;37.33;33.85;;;9.70;99.90;;;;;;6265446;22;20012;-87
2023/10/19 08:27:10;;;;;;;30.38;27.27;;;8.20;99.90;;;;;;6265234;22;20012;-87
2023/10/19 08:29:39;;;;;;;43.33;39.28;;;8.60;99.90;;;;;;6265543;22;20019;-86
2023/10/19 08:32:06;;;;;;;42.80;38.65;;;8.60;99.90;;;;;;6263403;22;20016;-86
2023/10/19 08:34:39;;;;;;;33.25;30.15;;;8.70;99.90;;;;;;6263995;22;20018;-85
2023/10/19 08:37:05;;;;;;;43.28;39.55;;;7.80;99.90;;;;;;6258877;22;20338;-83
2023/10/19 08:39:36;;;;;;;42.95;38.75;;;9.50;99.90;;;;;;6279024;22;20051;-83
2023/10/19 08:42:06;;;;;;;40.13;36.70;;;9.70;99.90;;;;;;6279845;22;20059;-83
2023/10/19 08:44:32;;;;;;;39.10;35.53;;;8.80;99.90;;;;;;6280373;22;20175;-84
2023/10/19 08:47:01;;;;;;;34.83;31.52;;;9.70;99.90;;;;;;6282283;22;20008;-83
2023/10/19 08:49:27;;;;;;;44.03;39.45;;;9.30;99.90;;;;;;6253742;22;20012;-82
2023/10/19 08:51:54;;;;;;;38.67;34.63;;;9.80;99.90;;;;;;6302229;22;20015;-84
2023/10/19 08:54:20;;;;;;;36.15;32.38;;;9.90;99.90;;;;;;6249666;22;20011;-82
2023/10/19 08:56:47;;;;;;;35.78;32.42;;;8.90;99.90;;;;;;6279142;22;20446;-84
2023/10/19 08:59:15;;;;;;;48.72;44.00;;;9.50;99.90;;;;;;6258143;22;20015;-84
2023/10/19 09:01:44;;;;;;;46.42;42.30;;;9.10;99.90;;;;;;6308603;22;20622;-84
2023/10/19 09:04:14;;;;;;;37.90;34.10;;;9.20;99.90;;;;;;6283408;22;20007;-84
2023/10/19 09:06:43;;;;;;;46.33;42.00;;;9.00;99.90;;;;;;6305280;22;20008;-84
2023/10/19 09:09:16;;;;;;;48.60;44.60;;;8.90;99.90;;;;;;6283771;22;20010;-85
2023/10/19 09:11:43;;;;;;;40.63;35.05;;;8.90;99.90;;;;;;6261917;22;20015;-84
2023/10/19 09:14:08;;;;;;;50.35;44.65;;;9.00;99.90;;;;;;6305518;22;20016;-82
2023/10/19 09:16:36;;;;;;;43.30;39.05;;;9.80;99.90;;;;;;6249841;22;20061;-82
2023/10/19 09:19:02;;;;;;;45.53;41.03;;;9.10;99.90;;;;;;6274465;22;20019;-82
2023/10/19 09:21:28;;;;;;;41.50;37.25;;;9.00;99.90;;;;;;6247639;22;20016;-82
2023/10/19 09:23:56;;;;;;;45.00;40.88;;;10.00;99.90;;;;;;6278347;22;20067;-82
2023/10/19 09:26:22;;;;;;;44.33;40.08;;;9.50;99.90;;;;;;6276937;22;20350;-83
2023/10/19 09:28:53;;;;;;;45.83;41.47;;;9.60;99.90;;;;;;6305565;22;20019;-83
2023/10/19 09:31:21;;;;;;;46.03;41.58;;;9.30;99.90;;;;;;6307660;22;20016;-82
2023/10/19 09:33:48;;;;;;;44.92;40.63;;;9.10;99.90;;;;;;6283698;22;20015;-87
2023/10/19 09:36:14;;;;;;;49.17;44.80;;;9.40;99.90;;;;;;6265969;22;20023;-86
2023/10/19 09:38:51;;;;;;;52.25;47.85;;;9.50;99.90;;;;;;6265774;22;20019;-84
2023/10/19 09:41:29;;;;;;;38.55;31.20;;;10.10;99.90;;;;;;6290559;22;20030;-84
2023/10/19 09:44:06;;;;;;;38.88;35.28;;;9.10;99.90;;;;;;6289386;22;20441;-85
2023/10/19 09:46:36;;;;;;;42.72;38.60;;;9.10;99.90;;;;;;6261037;22;20067;-82
2023/10/19 09:49:02;;;;;;;46.60;42.17;;;10.00;99.90;;;;;;6283850;22;20047;-83
2023/10/19 09:51:29;;;;;;;51.95;47.65;;;10.30;99.90;;;;;;6284117;22;20045;-83
2023/10/19 09:54:11;;;;;;;35.65;32.22;;;9.50;99.90;;;;;;6256777;22;20015;-85
2023/10/19 09:56:41;;;;;;;49.22;44.70;;;9.30;99.90;;;;;;6261967;22;20335;-83
2023/10/19 09:59:31;;;;;;;53.47;48.78;;;9.50;99.90;;;;;;6260514;22;20060;-83
2023/10/19 10:02:13;;;;;;;51.42;43.85;;;10.00;99.90;;;;;;6310988;22;20148;-84
2023/10/19 10:04:45;;;;;;;50.05;44.60;;;9.30;99.90;;;;;;6255593;22;20015;-82
2023/10/19 10:07:10;;;;;;;53.72;48.70;;;9.40;99.90;;;;;;6275963;22;20432;-82
2023/10/19 10:09:43;;;;;;;48.13;43.65;;;9.70;99.90;;;;;;6302708;22;20061;-84
2023/10/19 10:12:19;;;;;;;37.43;33.43;;;9.50;99.90;;;;;;6275574;22;20026;-83
2023/10/19 10:15:08;;;;;;;37.53;33.78;;;9.50;99.90;;;;;;6275217;22;20238;-82
2023/10/19 10:17:37;;;;;;;44.88;41.03;;;9.50;99.90;;;;;;6248951;22;20015;-82
2023/10/19 10:20:29;;;;;;;42.97;39.05;;;10.20;99.90;;;;;;6250093;22;20080;-83
2023/10/19 10:23:19;;;;;;;35.95;32.25;;;9.60;99.90;;;;;;6275875;22;20015;-82
2023/10/19 10:25:48;;;;;;;50.75;46.58;;;9.60;99.90;;;;;;6275716;22;20078;-83
2023/10/19 10:28:17;;;;;;;46.35;42.17;;;9.60;99.90;;;;;;6250212;22;20019;-83
2023/10/19 10:31:14;;;;;;;54.00;48.97;;;10.50;99.90;;;;;;6275875;22;20023;-86
2023/10/19 10:33:45;;;;;;;45.00;40.83;;;9.70;99.90;;;;;;6275130;22;20043;-86
2023/10/19 10:36:12;;;;;;;41.85;37.97;;;10.10;99.90;;;;;;6250040;22;20003;-85
2023/10/19 10:38:38;;;;;;;50.10;45.88;;;9.60;99.90;;;;;;6276041;22;20027;-86
2023/10/19 10:41:04;;;;;;;47.15;42.75;;;9.10;99.90;;;;;;6275692;22;20012;-85
2023/10/19 10:43:30;;;;;;;51.38;46.67;;;10.60;99.90;;;;;;6275608;22;20422;-85
2023/10/19 10:46:08;;;;;;;45.78;41.70;;;10.70;99.90;;;;;;6274512;22;20347;-85
2023/10/19 10:48:40;;;;;;;51.40;46.85;;;10.10;99.90;;;;;;6274945;22;20090;-84
2023/10/19 10:51:15;;;;;;;95.35;88.53;;;9.90;99.90;;;;;;6275025;22;20007;-84
2023/10/19 10:53:41;;;;;;;45.78;41.58;;;9.80;99.90;;;;;;6274611;22;20015;-84
2023/10/19 10:56:07;;;;;;;55.13;50.30;;;10.40;99.90;;;;;;6275191;22;20011;-87
2023/10/19 10:58:33;;;;;;;43.75;39.88;;;9.80;99.90;;;;;;6276153;22;20015;-89
2023/10/19 11:00:58;;;;;;;56.20;51.53;;;9.90;99.90;;;;;;6250679;22;20118;-87
2023/10/19 11:03:29;;;;;;;51.53;46.75;;;9.90;99.90;;;;;;6250829;22;20003;-86
2023/10/19 11:06:02;;;;;;;52.00;47.65;;;10.00;99.90;;;;;;6251073;22;20003;-87
2023/10/19 11:08:28;;;;;;;47.63;42.73;;;9.90;99.90;;;;;;6251915;22;20082;-89
2023/10/19 11:10:54;;;;;;;51.17;46.17;;;10.00;99.90;;;;;;6251748;22;20042;-89
2023/10/19 11:13:28;;;;;;;45.88;42.17;;;10.10;99.90;;;;;;6276453;22;20003;-87
2023/10/19 11:15:58;;;;;;;39.80;35.92;;;10.00;99.90;;;;;;6276313;22;20453;-88
2023/10/19 11:18:39;;;;;;;41.70;37.67;;;10.10;99.90;;;;;;6250297;22;20092;-88
2023/10/19 11:21:14;;;;;;;42.40;38.00;;;10.20;99.90;;;;;;6251250;22;20015;-82
2023/10/19 11:23:47;;;;;;;34.63;31.25;;;10.20;99.90;;;;;;6274707;22;20007;-85
2023/10/19 11:26:19;;;;;;;43.63;40.00;;;10.20;99.90;;;;;;6274940;22;20497;-88
2023/10/19 11:28:51;;;;;;;35.47;32.20;;;10.20;99.90;;;;;;6249887;22;20007;-88
2023/10/19 11:31:19;;;;;;;41.28;37.22;;;10.20;99.90;;;;;;6250537;22;20217;-88
2023/10/19 11:33:48;;;;;;;44.67;40.80;;;10.20;99.90;;;;;;6276621;22;20091;-91
2023/10/19 11:36:15;;;;;;;42.30;38.60;;;10.10;99.90;;;;;;6251232;22;20018;-90
2023/10/19 11:38:43;;;;;;;44.15;40.33;;;10.10;99.90;;;;;;6260600;22;20012;-85
2023/10/19 11:41:10;;;;;;;31.65;27.88;;;10.10;99.90;;;;;;6292119;22;20037;-88
2023/10/19 11:43:36;;;;;;;43.22;39.60;;;10.10;99.90;;;;;;6274114;22;20015;-84
2023/10/19 11:46:05;;;;;;;37.25;34.05;;;10.50;99.90;;;;;;6300605;22;20038;-89
2023/10/19 11:48:33;;;;;;;42.90;39.47;;;10.70;99.90;;;;;;6294906;22;20041;-82
2023/10/19 11:51:00;;;;;;;26.33;23.88;;;10.10;99.90;;;;;;6268178;22;20019;-86
2023/10/19 11:53:25;;;;;;;41.33;37.80;;;10.10;99.90;;;;;;6268447;22;20417;-85
2023/10/19 11:55:51;;;;;;;48.17;44.22;;;10.00;99.90;;;;;;6292847;22;20011;-86
2023/10/19 11:58:17;;;;;;;33.33;30.38;;;10.00;99.90;;;;;;6290682;22;20011;-84
2023/10/19 12:00:46;;;;;;;44.95;41.10;;;10.20;99.90;;;;;;6291254;22;20046;-86
2023/10/19 12:03:13;;;;;;;39.78;36.38;;;10.90;99.90;;;;;;6264243;22;20066;-84
2023/10/19 12:05:39;;;;;;;61.55;56.95;;;10.90;99.90;;;;;;6265077;22;20011;-85
2023/10/19 12:08:06;;;;;;;40.45;37.13;;;9.80;99.90;;;;;;6287202;22;20452;-86
2023/10/19 12:10:35;;;;;;;46.65;43.05;;;10.10;99.90;;;;;;6256099;22;20007;-82
2023/10/19 12:13:09;;;;;;;45.10;41.40;;;10.60;99.90;;;;;;6281204;22;20018;-80
2023/10/19 12:15:35;;;;;;;40.20;35.67;;;10.30;99.90;;;;;;6284666;22;20018;-84
2023/10/19 12:18:05;;;;;;;36.90;33.33;;;10.10;99.90;;;;;;6288130;22;20015;-86
2023/10/19 12:20:31;;;;;;;56.72;52.30;;;10.30;99.90;;;;;;6286659;22;20083;-83
2023/10/19 12:23:00;;;;;;;39.30;35.80;;;10.30;99.90;;;;;;6261632;22;20027;-87
2023/10/19 12:25:29;;;;;;;40.28;36.63;;;10.30;99.90;;;;;;6287950;22;20015;-83
2023/10/19 13:10:28;;;;;;;28.70;23.73;;;10.10;99.90;;;;;;6042360;22;7822403;-85
2023/10/19 13:13:04;;;;;;;33.88;27.52;;;10.30;99.90;;;;;;6308682;22;20057;-84
2023/10/19 13:15:50;;;;;;;33.72;30.33;;;9.70;99.90;;;;;;6288070;22;20009;-93
2023/10/19 13:18:27;;;;;;;37.75;34.03;;;10.00;99.90;;;;;;6313367;22;20019;-91
2023/10/19 13:20:54;;;;;;;34.42;29.60;;;10.10;99.90;;;;;;6313894;22;20015;-92
2023/10/19 13:23:23;;;;;;;37.60;33.35;;;10.00;99.90;;;;;;6313621;22;20015;-91
2023/10/19 13:25:54;;;;;;;34.30;27.33;;;10.00;99.90;;;;;;6313451;22;20067;-92
2023/10/19 13:28:27;;;;;;;37.85;30.88;;;10.00;99.90;;;;;;6289818;22;20019;-92
2023/10/19 13:30:54;;;;;;;38.05;31.40;;;10.00;99.90;;;;;;6288418;22;20094;-90
2023/10/19 13:33:23;;;;;;;41.38;32.08;;;10.30;99.90;;;;;;6313604;22;20011;-91
2023/10/19 13:35:51;;;;;;;42.67;38.30;;;9.90;99.90;;;;;;6288068;22;20007;-93
2023/10/19 13:38:19;;;;;;;48.00;40.75;;;9.90;99.90;;;;;;6260635;22;20015;-90
2023/10/19 13:40:45;;;;;;;46.53;38.17;;;9.80;99.90;;;;;;6311554;22;20045;-87
2023/10/19 13:43:16;;;;;;;54.35;45.22;;;9.90;99.90;;;;;;6311168;22;20039;-88
2023/10/19 13:45:43;;;;;;;46.38;40.67;;;9.80;99.90;;;;;;6309383;22;20014;-88